Simmonsville, Texas
Current Conditions -  °F | °C
As of 5:15 PM on Wednesday 26 Nov 2014 (Local Time) from KOSA Reporting Station
Clear Clear  
Wind Chill: 59°   Ceiling: Unl
Heat Index: 59°   Visibility: 10mi
Dew Point: 30°   Wind: 7mph
Humidity: 34%   Direction: 300°WNW
Pressure: 30.23"   Gusts: NA
Location:  32.7353°N, 94.9492°W
Report Text: KOSA 262315Z AUTO 30006KT 10SM CLR 15/M01 A3023 RMK AO1 T01491011
Loading
Personal Weather Stations






























Interactive Weather Map New forecast layout! Learn more

10-Day Weather Forecast

Advertisements
Track Severe Weather on mobile